Time;durP1;ratioP1;P1;durP2;ratioP2;P2;SDS_P1;SDS_P2;PMS_P1;PMS_P2;Temp;Humidity;BMP_temperature;BMP_pressure;BME280_temperature;BME280_humidity;BME280_pressure;Samples;Min_cycle;Max_cycle;Signal;HPM_P1;HPM_P2
2022/04/20 00:01:13;;;;;;;43.75;24.63;;;5.20;99.90;;;;;;5096173;28;20031;-85
2022/04/20 00:03:39;;;;;;;50.45;26.88;;;5.20;99.90;;;;;;5095917;28;20028;-85
2022/04/20 00:06:08;;;;;;;55.33;28.35;;;5.20;99.90;;;;;;5095841;28;20024;-85
2022/04/20 00:08:34;;;;;;;62.10;32.22;;;5.30;99.90;;;;;;5097038;28;20031;-85
2022/04/20 00:11:00;;;;;;;67.82;32.67;;;5.30;99.90;;;;;;5095888;28;20020;-85
2022/04/20 00:13:27;;;;;;;57.58;31.40;;;5.30;99.90;;;;;;5096044;28;20034;-85
2022/04/20 00:15:53;;;;;;;56.47;28.42;;;5.30;99.90;;;;;;5095716;28;20020;-85
2022/04/20 00:18:19;;;;;;;51.55;29.25;;;5.40;99.90;;;;;;5095744;28;20028;-85
2022/04/20 00:20:44;;;;;;;44.95;25.52;;;5.40;99.90;;;;;;5095709;28;20020;-85
2022/04/20 00:23:10;;;;;;;38.50;24.20;;;5.40;99.90;;;;;;5095832;28;20020;-85
2022/04/20 00:25:36;;;;;;;37.00;22.40;;;5.40;99.90;;;;;;5095579;28;20027;-85
2022/04/20 00:28:02;;;;;;;35.28;21.30;;;5.50;99.90;;;;;;5096567;28;20043;-85
2022/04/20 00:30:27;;;;;;;31.20;20.52;;;5.50;99.90;;;;;;5095475;28;20051;-85
2022/04/20 00:32:53;;;;;;;34.33;20.75;;;5.50;99.90;;;;;;5095082;28;20047;-86
2022/04/20 00:35:19;;;;;;;37.78;22.27;;;5.50;99.90;;;;;;5095475;28;20032;-85
2022/04/20 00:37:46;;;;;;;38.20;22.42;;;5.50;99.90;;;;;;5078682;28;20024;-85
2022/04/20 00:40:14;;;;;;;45.15;24.35;;;5.50;99.90;;;;;;5078394;28;20032;-85
2022/04/20 00:42:43;;;;;;;38.53;21.67;;;5.50;99.90;;;;;;5095246;28;20060;-85
2022/04/20 00:45:12;;;;;;;36.13;20.80;;;5.50;99.90;;;;;;5079004;28;20040;-85
2022/04/20 00:47:45;;;;;;;36.08;21.63;;;5.50;99.90;;;;;;5096166;28;20032;-85
2022/04/20 00:50:13;;;;;;;35.70;20.33;;;5.50;99.90;;;;;;5096294;28;20051;-85
2022/04/20 00:52:39;;;;;;;37.47;22.17;;;5.50;99.90;;;;;;5078221;28;20742;-85
2022/04/20 00:55:07;;;;;;;36.45;20.00;;;5.50;99.90;;;;;;5095062;28;20032;-85
2022/04/20 00:57:34;;;;;;;32.50;20.08;;;5.40;99.90;;;;;;5095001;28;20467;-85
2022/04/20 01:00:02;;;;;;;33.63;19.73;;;5.40;99.90;;;;;;5095216;28;20134;-85
2022/04/20 01:02:28;;;;;;;37.38;21.30;;;5.30;99.90;;;;;;5078099;28;20371;-85
2022/04/20 01:04:54;;;;;;;37.03;20.92;;;5.30;99.90;;;;;;5095122;28;20111;-85
2022/04/20 01:07:22;;;;;;;35.08;20.83;;;5.30;99.90;;;;;;5078098;28;20024;-85
2022/04/20 01:09:49;;;;;;;38.78;22.45;;;5.20;99.90;;;;;;5094658;28;20467;-85
2022/04/20 01:12:18;;;;;;;41.40;21.80;;;5.20;99.90;;;;;;5094823;28;20027;-85
2022/04/20 01:14:44;;;;;;;40.13;22.42;;;5.20;99.90;;;;;;5077229;28;20036;-85
2022/04/20 01:17:11;;;;;;;36.42;21.27;;;5.10;99.90;;;;;;5077261;28;20028;-85
2022/04/20 01:19:39;;;;;;;35.40;21.05;;;5.10;99.90;;;;;;5095599;28;20028;-85
2022/04/20 01:22:07;;;;;;;37.65;20.90;;;5.10;99.90;;;;;;5094321;28;20059;-85
2022/04/20 01:24:39;;;;;;;36.80;20.95;;;5.00;99.90;;;;;;5093986;28;20566;-85
2022/04/20 01:27:06;;;;;;;32.95;19.52;;;5.00;99.90;;;;;;5094509;28;20107;-85
2022/04/20 01:29:33;;;;;;;34.08;19.25;;;5.10;99.90;;;;;;5093951;28;20615;-85
2022/04/20 01:32:00;;;;;;;34.53;20.33;;;5.10;99.90;;;;;;5094332;28;20035;-85
2022/04/20 01:34:26;;;;;;;31.23;18.38;;;5.10;99.90;;;;;;5094199;28;20108;-85
2022/04/20 01:36:52;;;;;;;33.05;19.30;;;5.10;99.90;;;;;;5094942;28;20146;-85
2022/04/20 01:39:18;;;;;;;37.85;20.88;;;5.10;99.90;;;;;;5093986;28;20490;-85
2022/04/20 01:41:44;;;;;;;31.23;19.02;;;5.20;99.90;;;;;;5094030;28;20036;-85
2022/04/20 01:44:10;;;;;;;34.22;20.23;;;5.10;99.90;;;;;;5094211;28;20039;-85
2022/04/20 01:46:36;;;;;;;33.70;19.48;;;5.10;99.90;;;;;;5094204;28;20078;-85
2022/04/20 01:49:04;;;;;;;30.88;18.80;;;5.10;99.90;;;;;;5094164;28;20040;-86
2022/04/20 01:52:13;;;;;;;31.42;20.38;;;5.10;99.90;;;;;;5076953;28;20024;-85
2022/04/20 01:54:20;;;;;;;30.90;19.48;;;5.10;99.90;;;;;;5089383;28;20028;-85
2022/04/20 01:56:48;;;;;;;35.70;20.77;;;5.10;99.90;;;;;;5093418;28;20032;-85
2022/04/20 01:59:15;;;;;;;38.70;22.27;;;5.10;99.90;;;;;;5095121;28;20040;-85
2022/04/20 02:04:26;;;;;;;40.42;24.13;;;5.00;99.90;;;;;;5094392;28;20031;-85
2022/04/20 02:06:56;;;;;;;39.50;23.63;;;5.00;99.90;;;;;;5094710;28;20028;-85
2022/04/20 02:09:22;;;;;;;34.55;20.58;;;5.00;99.90;;;;;;5093695;28;20028;-85
2022/04/20 02:11:49;;;;;;;30.92;18.77;;;4.90;99.90;;;;;;5093423;28;20020;-85
2022/04/20 02:14:15;;;;;;;27.23;18.13;;;4.90;99.90;;;;;;5093553;28;20032;-86
2022/04/20 02:16:42;;;;;;;30.08;17.65;;;4.80;99.90;;;;;;5093253;28;20444;-85
2022/04/20 02:19:08;;;;;;;27.55;16.48;;;4.70;99.90;;;;;;5093476;28;20028;-85
2022/04/20 02:21:34;;;;;;;25.75;15.63;;;4.60;99.90;;;;;;5093539;28;20024;-86
2022/04/20 02:24:02;;;;;;;25.55;16.60;;;4.50;99.90;;;;;;5094718;28;20032;-85
2022/04/20 02:26:27;;;;;;;26.50;15.43;;;4.30;99.90;;;;;;5076237;28;20032;-85
2022/04/20 02:28:54;;;;;;;24.70;14.80;;;4.20;99.90;;;;;;5092411;28;20046;-85
2022/04/20 02:31:21;;;;;;;22.25;14.77;;;4.10;99.90;;;;;;5094435;28;20402;-85
2022/04/20 02:33:47;;;;;;;22.92;15.82;;;4.00;99.90;;;;;;5093325;28;20102;-85
2022/04/20 02:36:14;;;;;;;28.02;16.75;;;3.90;99.90;;;;;;5092910;28;20115;-85
2022/04/20 02:38:40;;;;;;;21.60;14.07;;;3.80;99.90;;;;;;5093082;28;20505;-85
2022/04/20 02:41:07;;;;;;;23.42;15.23;;;3.60;99.90;;;;;;5094261;28;20039;-85
2022/04/20 02:43:34;;;;;;;22.08;14.15;;;3.60;99.90;;;;;;5093569;28;20036;-85
2022/04/20 02:46:01;;;;;;;22.42;13.52;;;3.50;99.90;;;;;;5092732;28;20115;-86
2022/04/20 02:48:27;;;;;;;26.20;15.02;;;3.40;99.90;;;;;;5076646;28;20386;-85
2022/04/20 02:50:53;;;;;;;23.88;14.68;;;3.40;99.90;;;;;;5093048;28;20111;-85
2022/04/20 02:53:20;;;;;;;24.77;14.55;;;3.30;99.90;;;;;;5076247;28;20536;-86
2022/04/20 02:55:47;;;;;;;26.70;15.50;;;3.30;99.90;;;;;;5092781;28;20024;-85
2022/04/20 02:58:14;;;;;;;22.33;14.10;;;3.20;99.90;;;;;;5093450;28;20506;-86
2022/04/20 03:00:40;;;;;;;21.17;14.20;;;3.20;99.90;;;;;;5094172;28;20470;-85
2022/04/20 03:03:06;;;;;;;23.98;14.38;;;3.20;99.90;;;;;;5093198;28;20031;-86
2022/04/20 03:05:32;;;;;;;28.05;16.75;;;3.20;99.90;;;;;;5094333;28;20020;-86
2022/04/20 03:07:59;;;;;;;22.48;14.48;;;3.20;99.90;;;;;;5092924;28;20028;-85
2022/04/20 03:10:25;;;;;;;24.20;14.98;;;3.10;99.90;;;;;;5076235;28;20382;-86
2022/04/20 03:12:53;;;;;;;29.70;17.70;;;3.10;99.90;;;;;;5092550;28;20032;-85
2022/04/20 03:15:19;;;;;;;25.45;17.10;;;3.00;99.90;;;;;;5092773;28;20035;-85
2022/04/20 03:17:45;;;;;;;26.95;17.60;;;3.00;99.90;;;;;;5076255;28;20390;-85
2022/04/20 03:20:10;;;;;;;25.55;17.67;;;3.00;99.90;;;;;;5093629;28;20032;-86
2022/04/20 03:22:36;;;;;;;31.60;19.48;;;3.00;99.90;;;;;;5093916;28;20028;-85
2022/04/20 03:25:03;;;;;;;34.70;20.63;;;2.90;99.90;;;;;;5093712;28;20063;-86
2022/04/20 03:27:31;;;;;;;36.05;19.70;;;2.90;99.90;;;;;;5095153;28;20085;-85
2022/04/20 03:29:57;;;;;;;34.33;19.35;;;2.90;99.90;;;;;;5096692;28;20101;-85
2022/04/20 03:32:23;;;;;;;30.02;17.60;;;2.90;99.90;;;;;;5079269;28;20039;-85
2022/04/20 03:34:48;;;;;;;30.13;19.63;;;2.90;99.90;;;;;;5096405;28;20028;-86
2022/04/20 03:37:14;;;;;;;35.20;20.85;;;2.90;99.90;;;;;;5096238;28;20093;-85
2022/04/20 03:39:41;;;;;;;35.75;20.73;;;3.00;99.90;;;;;;5097667;28;20063;-86
2022/04/20 03:42:08;;;;;;;34.50;20.17;;;2.90;99.90;;;;;;5096572;28;20027;-85
2022/04/20 03:44:35;;;;;;;31.65;20.10;;;2.90;99.90;;;;;;5096594;28;20024;-85
2022/04/20 03:47:01;;;;;;;34.22;20.30;;;2.90;99.90;;;;;;5097299;28;20024;-85
2022/04/20 03:49:26;;;;;;;35.45;20.88;;;3.00;99.90;;;;;;5096006;28;20081;-86
2022/04/20 03:51:52;;;;;;;37.20;20.73;;;3.00;99.90;;;;;;5096269;28;20016;-85
2022/04/20 03:54:18;;;;;;;46.90;23.92;;;3.00;99.90;;;;;;5095824;28;20020;-85
2022/04/20 03:59:28;;;;;;;48.25;25.83;;;3.10;99.90;;;;;;5097536;28;20050;-86
2022/04/20 04:01:55;;;;;;;49.92;26.10;;;3.20;99.90;;;;;;5079187;28;20458;-86
2022/04/20 04:04:21;;;;;;;49.25;26.52;;;3.30;99.90;;;;;;5079446;28;20470;-86
2022/04/20 04:06:47;;;;;;;48.58;23.48;;;3.30;99.90;;;;;;5095923;28;20114;-86
2022/04/20 04:09:14;;;;;;;41.33;23.50;;;3.40;99.90;;;;;;5079053;28;20463;-86
2022/04/20 04:11:40;;;;;;;40.58;23.77;;;3.50;99.90;;;;;;5097043;28;20364;-86
2022/04/20 04:14:06;;;;;;;38.78;24.08;;;3.60;99.90;;;;;;5095429;28;20028;-86
2022/04/20 04:16:36;;;;;;;51.33;31.25;;;3.70;99.90;;;;;;5095902;28;20378;-86
2022/04/20 04:19:19;;;;;;;48.90;28.48;;;3.80;99.90;;;;;;5094103;28;20056;-85
2022/04/20 04:21:51;;;;;;;38.15;23.80;;;4.00;99.90;;;;;;5095918;28;20085;-86
2022/04/20 04:24:36;;;;;;;29.50;18.63;;;4.10;99.90;;;;;;5095757;28;20151;-86
2022/04/20 04:27:17;;;;;;;30.75;17.70;;;4.30;99.90;;;;;;5095810;28;20020;-85
2022/04/20 04:29:44;;;;;;;29.13;18.42;;;4.50;99.90;;;;;;5077337;28;20442;-85
2022/04/20 04:32:12;;;;;;;34.85;19.27;;;4.70;99.90;;;;;;5095721;28;20042;-85
2022/04/20 04:34:39;;;;;;;43.60;21.38;;;4.90;99.90;;;;;;5097018;28;20028;-85
2022/04/20 04:37:08;;;;;;;27.27;15.95;;;5.10;99.90;;;;;;5078699;28;20109;-86
2022/04/20 04:39:33;;;;;;;22.73;11.95;;;5.20;99.90;;;;;;5095005;28;20030;-86
2022/04/20 04:42:01;;;;;;;17.20;9.60;;;5.40;99.90;;;;;;5095138;28;20036;-86
2022/04/20 04:44:27;;;;;;;13.02;8.98;;;5.60;99.90;;;;;;5078413;28;20031;-85
2022/04/20 04:49:38;;;;;;;11.75;8.40;;;5.70;99.90;;;;;;5095499;28;20137;-86
2022/04/20 04:52:06;;;;;;;11.52;8.57;;;5.90;99.90;;;;;;5078257;28;20470;-86
2022/04/20 04:54:35;;;;;;;9.82;7.28;;;6.10;99.90;;;;;;5094701;28;20118;-85
2022/04/20 04:57:02;;;;;;;10.43;6.88;;;6.20;99.90;;;;;;5078285;28;20085;-86
2022/04/20 04:59:30;;;;;;;12.63;8.45;;;6.30;99.90;;;;;;5096272;28;20108;-85
2022/04/20 05:01:58;;;;;;;12.63;7.75;;;6.40;99.90;;;;;;5094449;28;20092;-86
2022/04/20 05:04:23;;;;;;;10.93;8.05;;;6.50;99.90;;;;;;5094441;28;20487;-85
2022/04/20 05:06:49;;;;;;;11.45;7.53;;;6.50;99.90;;;;;;5094358;28;20166;-85
2022/04/20 05:09:15;;;;;;;9.95;7.57;;;6.50;99.90;;;;;;5095678;28;20024;-85
2022/04/20 05:11:42;;;;;;;11.50;7.53;;;6.50;99.90;;;;;;5094725;28;20077;-85
2022/04/20 05:14:13;;;;;;;9.95;7.18;;;6.50;99.90;;;;;;5094545;28;20110;-85
2022/04/20 05:16:40;;;;;;;12.20;8.77;;;6.40;99.90;;;;;;5094840;28;20102;-85
2022/04/20 05:19:05;;;;;;;13.63;10.15;;;6.50;99.90;;;;;;5095629;28;20032;-85
2022/04/20 05:21:33;;;;;;;12.38;8.65;;;6.40;99.90;;;;;;5094222;28;20052;-85
2022/04/20 05:23:59;;;;;;;14.07;9.60;;;6.50;99.90;;;;;;5094576;28;20059;-85
2022/04/20 05:26:27;;;;;;;14.77;10.23;;;6.60;99.90;;;;;;5094363;28;20031;-85
2022/04/20 05:28:53;;;;;;;16.00;10.90;;;6.60;99.90;;;;;;5077161;28;20055;-85
2022/04/20 05:31:20;;;;;;;15.07;10.18;;;6.60;99.90;;;;;;5077677;28;20071;-85
2022/04/20 05:33:47;;;;;;;19.95;12.15;;;6.70;99.90;;;;;;5095185;28;20024;-86
2022/04/20 05:36:14;;;;;;;17.33;11.00;;;6.80;99.90;;;;;;5094433;28;20032;-85
2022/04/20 05:41:47;;;;;;;13.32;9.10;;;6.90;99.90;;;;;;5095621;28;20112;-86
2022/04/20 05:44:14;;;;;;;12.63;9.02;;;6.90;99.90;;;;;;5094562;28;20032;-87
2022/04/20 05:46:41;;;;;;;9.80;7.60;;;7.00;99.90;;;;;;5093868;28;20500;-86
2022/04/20 05:49:07;;;;;;;11.38;8.25;;;7.00;99.90;;;;;;5093592;28;20028;-85
2022/04/20 05:51:33;;;;;;;9.68;6.47;;;7.10;99.90;;;;;;5092751;28;20083;-84
2022/04/20 05:54:00;;;;;;;8.05;6.07;;;7.10;99.90;;;;;;5093581;28;20505;-87
2022/04/20 05:56:26;;;;;;;8.18;5.95;;;7.30;99.90;;;;;;5093688;28;20355;-85
2022/04/20 05:58:52;;;;;;;6.85;6.00;;;7.50;99.90;;;;;;5093702;28;20020;-87
2022/04/20 06:01:19;;;;;;;6.80;5.88;;;7.60;99.90;;;;;;5093894;28;20036;-87
2022/04/20 06:03:46;;;;;;;7.97;6.03;;;7.70;99.90;;;;;;5093613;28;20020;-86
2022/04/20 06:06:13;;;;;;;6.95;5.97;;;7.80;99.90;;;;;;5093630;28;20020;-87
2022/04/20 06:08:41;;;;;;;8.93;7.13;;;7.90;99.90;;;;;;5076473;28;20028;-85
2022/04/20 06:11:06;;;;;;;7.00;5.78;;;7.90;99.90;;;;;;5093477;28;20107;-86
2022/04/20 06:13:33;;;;;;;9.20;6.82;;;7.90;99.90;;;;;;5093814;28;20113;-88
2022/04/20 06:15:59;;;;;;;6.60;5.90;;;8.00;99.90;;;;;;5093846;28;20031;-94
2022/04/20 06:18:24;;;;;;;7.88;6.50;;;8.10;99.90;;;;;;5093557;28;20020;-87
2022/04/20 06:20:50;;;;;;;9.13;6.00;;;8.10;99.90;;;;;;5093596;28;20020;-87
2022/04/20 06:23:17;;;;;;;7.13;5.38;;;8.20;99.90;;;;;;5076571;28;20090;-90
2022/04/20 06:25:42;;;;;;;6.93;5.20;;;8.30;99.90;;;;;;5076677;28;20020;-87
2022/04/20 06:28:08;;;;;;;6.63;5.22;;;8.40;99.90;;;;;;5076110;28;20714;-88
2022/04/20 06:30:34;;;;;;;6.15;5.10;;;8.50;99.90;;;;;;5093440;28;20047;-88
2022/04/20 06:33:01;;;;;;;7.43;5.20;;;8.60;99.90;;;;;;5093517;28;20051;-88
2022/04/20 06:35:26;;;;;;;6.35;4.82;;;8.70;99.90;;;;;;5093693;28;20535;-87
2022/04/20 06:37:53;;;;;;;8.40;5.60;;;8.70;99.90;;;;;;5094290;28;20035;-90
2022/04/20 06:40:20;;;;;;;6.10;5.50;;;8.70;99.90;;;;;;5093279;28;20024;-88
2022/04/20 06:42:46;;;;;;;5.45;4.60;;;8.80;99.90;;;;;;5076344;28;20028;-90
2022/04/20 06:45:11;;;;;;;6.28;4.95;;;8.90;99.30;;;;;;5092797;28;20028;-88
2022/04/20 06:47:37;;;;;;;5.15;4.30;;;9.00;98.80;;;;;;5093068;28;20475;-88
2022/04/20 06:50:03;;;;;;;4.97;4.47;;;9.10;98.10;;;;;;5093125;28;20043;-88
2022/04/20 07:00:44;;;;;;;8.48;6.63;;;9.30;96.80;;;;;;5094660;28;20063;-86
2022/04/20 07:03:11;;;;;;;8.63;6.57;;;9.40;96.60;;;;;;5098250;28;20036;-87
2022/04/20 07:05:38;;;;;;;6.95;5.28;;;9.40;97.50;;;;;;5063749;28;20142;-87
2022/04/20 07:08:04;;;;;;;8.35;6.82;;;9.40;97.60;;;;;;5080615;28;20039;-87
2022/04/20 07:10:32;;;;;;;8.65;7.00;;;9.40;98.30;;;;;;5095975;28;20436;-88
2022/04/20 07:12:58;;;;;;;8.40;6.80;;;9.40;98.90;;;;;;5097113;28;20020;-87
2022/04/20 07:15:25;;;;;;;7.47;6.18;;;9.50;99.60;;;;;;5096733;28;20020;-87
2022/04/20 07:17:51;;;;;;;8.93;6.85;;;9.70;99.90;;;;;;5080402;28;20035;-87
2022/04/20 07:20:19;;;;;;;6.95;6.25;;;9.90;99.30;;;;;;5096744;28;20021;-87
2022/04/20 07:22:53;;;;;;;7.45;6.32;;;10.00;99.30;;;;;;5096940;28;20459;-87
2022/04/20 07:25:20;;;;;;;10.32;7.13;;;10.00;98.20;;;;;;5080176;28;20036;-87
2022/04/20 07:27:48;;;;;;;8.00;6.60;;;9.90;98.40;;;;;;5096008;28;20462;-87
2022/04/20 07:30:17;;;;;;;9.98;7.60;;;9.90;98.90;;;;;;5097893;28;20394;-87
2022/04/20 07:32:46;;;;;;;16.73;13.38;;;10.00;98.80;;;;;;5092934;28;20048;-87
2022/04/20 07:35:12;;;;;;;10.27;7.85;;;10.10;98.20;;;;;;5097747;28;20485;-88
2022/04/20 07:37:38;;;;;;;9.38;7.05;;;10.00;98.30;;;;;;5095785;28;20024;-86
2022/04/20 07:40:06;;;;;;;13.77;10.88;;;9.90;98.20;;;;;;5096454;28;20039;-87
2022/04/20 07:42:36;;;;;;;13.90;11.70;;;9.90;98.40;;;;;;5096576;28;20028;-87
2022/04/20 07:45:03;;;;;;;12.50;10.32;;;9.80;98.20;;;;;;5097378;28;20028;-87
2022/04/20 07:47:29;;;;;;;18.83;13.20;;;9.70;97.80;;;;;;5079399;28;20043;-87
2022/04/20 07:52:45;;;;;;;9.52;7.45;;;9.80;97.90;;;;;;5096666;28;20488;-86
2022/04/20 07:55:15;;;;;;;9.05;6.28;;;9.90;97.10;;;;;;5095734;28;20036;-87
2022/04/20 07:57:43;;;;;;;8.50;6.10;;;10.10;97.10;;;;;;5096241;28;20028;-87
2022/04/20 08:00:14;;;;;;;7.00;6.10;;;10.40;97.30;;;;;;5097064;28;20044;-87
2022/04/20 08:02:41;;;;;;;40.08;28.10;;;10.70;96.80;;;;;;5096012;28;20027;-89
2022/04/20 08:05:10;;;;;;;15.02;12.20;;;11.00;95.30;;;;;;5095441;28;20075;-87
2022/04/20 08:07:36;;;;;;;27.33;18.55;;;11.20;94.50;;;;;;5097259;28;20378;-86
2022/04/20 08:10:06;;;;;;;8.45;6.60;;;11.20;93.80;;;;;;5079269;28;20055;-87
2022/04/20 08:12:40;;;;;;;7.78;6.75;;;11.50;94.50;;;;;;5094076;28;20103;-88
2022/04/20 08:15:08;;;;;;;11.50;7.78;;;11.70;92.80;;;;;;5095639;28;20027;-88
2022/04/20 08:17:35;;;;;;;99.60;42.75;;;11.90;93.20;;;;;;5095784;28;20024;-88
2022/04/20 08:20:05;;;;;;;53.78;26.70;;;12.10;92.10;;;;;;5096878;28;20374;-87
2022/04/20 08:22:31;;;;;;;16.63;9.85;;;12.30;92.70;;;;;;5095680;28;20020;-87
2022/04/20 08:24:57;;;;;;;66.22;39.42;;;12.40;92.10;;;;;;5095435;28;20486;-88
2022/04/20 08:27:24;;;;;;;18.02;11.38;;;12.70;91.90;;;;;;5095276;28;20028;-88
2022/04/20 08:29:51;;;;;;;22.02;12.55;;;12.80;91.50;;;;;;5095585;28;20079;-88
2022/04/20 08:32:18;;;;;;;10.02;6.93;;;13.10;91.30;;;;;;5095682;28;20489;-88
2022/04/20 08:34:48;;;;;;;27.33;13.80;;;13.30;91.20;;;;;;5096399;28;20032;-88
2022/04/20 08:37:14;;;;;;;7.50;5.85;;;13.40;90.80;;;;;;5095460;28;20020;-87
2022/04/20 08:39:40;;;;;;;19.20;9.32;;;13.30;85.30;;;;;;5095167;28;20028;-88
2022/04/20 08:42:12;;;;;;;11.43;7.10;;;13.10;84.50;;;;;;5095360;28;20031;-88
2022/04/20 08:44:44;;;;;;;10.02;6.95;;;13.20;84.50;;;;;;5095279;28;20398;-88
2022/04/20 08:47:18;;;;;;;5.30;4.38;;;13.10;82.80;;;;;;5078953;28;20028;-88
2022/04/20 08:49:45;;;;;;;5.53;4.50;;;13.20;80.80;;;;;;5078944;28;20043;-87
2022/04/20 08:54:56;;;;;;;8.73;5.75;;;13.10;80.70;;;;;;5096767;28;20059;-88
2022/04/20 08:57:24;;;;;;;13.10;7.95;;;13.20;80.10;;;;;;5096438;28;20095;-88
2022/04/20 08:59:51;;;;;;;4.80;4.22;;;13.30;81.10;;;;;;5094625;28;20051;-88
2022/04/20 09:02:24;;;;;;;4.10;3.70;;;13.40;81.20;;;;;;5077834;28;20028;-87
2022/04/20 09:04:52;;;;;;;4.30;3.90;;;13.50;81.00;;;;;;5094779;28;20024;-88
2022/04/20 09:07:19;;;;;;;4.53;3.65;;;13.60;80.20;;;;;;5096097;28;20394;-88
2022/04/20 09:09:46;;;;;;;3.70;3.22;;;13.60;78.80;;;;;;5094897;28;20024;-88
2022/04/20 09:12:17;;;;;;;6.22;4.00;;;13.60;74.50;;;;;;5094728;28;20039;-90
2022/04/20 09:14:51;;;;;;;4.35;3.92;;;13.70;72.00;;;;;;5094857;28;20023;-89
2022/04/20 09:17:19;;;;;;;3.40;3.08;;;13.60;71.50;;;;;;5094901;28;20028;-89
2022/04/20 09:19:56;;;;;;;4.13;3.63;;;13.60;72.20;;;;;;5096015;28;20486;-90
2022/04/20 09:22:30;;;;;;;5.22;3.80;;;13.70;70.00;;;;;;5094403;28;20028;-89
2022/04/20 09:25:06;;;;;;;4.07;3.67;;;13.80;68.90;;;;;;5095757;28;20103;-89
2022/04/20 09:27:42;;;;;;;3.88;3.47;;;13.50;69.20;;;;;;5095970;28;20386;-88
2022/04/20 09:30:16;;;;;;;4.45;3.42;;;13.50;71.00;;;;;;5095840;28;20031;-89
2022/04/20 09:32:44;;;;;;;7.07;4.28;;;13.70;72.40;;;;;;5095284;28;20026;-89
2022/04/20 09:35:12;;;;;;;4.68;3.90;;;13.70;69.00;;;;;;5093980;28;20466;-88
2022/04/20 09:37:40;;;;;;;5.40;4.00;;;13.30;68.60;;;;;;5061377;28;20024;-88
2022/04/20 09:40:11;;;;;;;4.20;3.80;;;13.30;69.70;;;;;;5094302;28;20028;-88
2022/04/20 09:43:00;;;;;;;4.88;4.38;;;13.30;68.60;;;;;;5078165;28;20078;-89
2022/04/20 09:45:25;;;;;;;7.65;4.00;;;13.20;69.00;;;;;;5081705;28;20036;-88
2022/04/20 09:50:35;;;;;;;4.20;3.78;;;13.00;72.00;;;;;;5095708;28;20120;-88
2022/04/20 09:53:07;;;;;;;6.35;4.07;;;12.90;72.00;;;;;;5093357;28;20043;-89
2022/04/20 09:55:35;;;;;;;11.07;5.90;;;13.00;73.60;;;;;;5094948;28;20021;-89
2022/04/20 09:58:18;;;;;;;42.08;17.98;;;13.20;74.90;;;;;;5077160;28;20067;-88
2022/04/20 10:00:49;;;;;;;20.50;12.30;;;13.40;76.10;;;;;;5093959;28;20028;-88
2022/04/20 10:03:32;;;;;;;7.80;5.72;;;13.50;75.20;;;;;;5094084;28;20028;-88
2022/04/20 10:05:59;;;;;;;10.77;7.53;;;13.50;73.90;;;;;;5094940;28;20024;-88
2022/04/20 10:08:26;;;;;;;6.20;4.80;;;13.30;74.30;;;;;;5093798;28;20032;-88
2022/04/20 10:10:56;;;;;;;6.88;4.85;;;13.20;74.80;;;;;;5093617;28;20020;-88
2022/04/20 10:13:27;;;;;;;4.20;3.80;;;13.10;75.20;;;;;;5076896;28;20387;-88
2022/04/20 10:16:07;;;;;;;4.10;3.45;;;13.00;75.90;;;;;;5093961;28;20024;-88
2022/04/20 10:18:45;;;;;;;4.82;3.65;;;13.00;76.10;;;;;;5094803;28;20012;-89
2022/04/20 10:21:11;;;;;;;12.50;9.73;;;13.10;76.90;;;;;;5073495;28;20021;-89
2022/04/20 10:23:43;;;;;;;17.40;9.88;;;13.10;77.00;;;;;;5093420;28;20424;-88
2022/04/20 10:26:10;;;;;;;7.53;5.15;;;13.20;76.80;;;;;;5076969;28;20081;-89
2022/04/20 10:28:57;;;;;;;25.95;11.70;;;13.30;76.90;;;;;;5094072;28;20130;-89
2022/04/20 10:31:38;;;;;;;45.22;17.08;;;13.40;77.60;;;;;;5094663;28;20023;-89
2022/04/20 10:34:05;;;;;;;35.63;12.90;;;13.50;76.10;;;;;;5093750;28;20031;-88
2022/04/20 10:36:33;;;;;;;9.90;6.15;;;13.40;74.10;;;;;;5094315;28;20035;-88
2022/04/20 10:39:27;;;;;;;8.85;3.92;;;13.10;71.60;;;;;;5093183;28;20448;-88
2022/04/20 10:42:20;;;;;;;14.27;5.50;;;13.00;72.00;;;;;;5073724;28;20043;-88
2022/04/20 10:45:06;;;;;;;6.70;4.15;;;12.80;73.80;;;;;;5094452;28;20032;-88
2022/04/20 10:47:36;;;;;;;6.38;4.07;;;12.70;73.90;;;;;;5093129;28;20024;-88
2022/04/20 10:50:13;;;;;;;;;;;12.70;73.90;;;;;;5093732;28;20032;-88
2022/04/20 10:52:41;;;;;;;5.68;4.10;;;12.60;73.70;;;;;;5093134;28;19919;-88
2022/04/20 10:55:09;;;;;;;6.88;4.00;;;12.50;72.70;;;;;;5093340;28;20028;-88
2022/04/20 10:57:37;;;;;;;10.05;3.83;;;12.40;72.60;;;;;;5093551;28;20030;-88
2022/04/20 11:00:34;;;;;;;4.05;3.65;;;12.30;73.40;;;;;;5093191;28;20064;-88
2022/04/20 11:03:05;;;;;;;4.75;3.70;;;12.20;73.70;;;;;;5092641;28;20436;-88
2022/04/20 11:05:33;;;;;;;4.80;3.50;;;12.30;74.50;;;;;;5094099;28;20058;-88
2022/04/20 11:08:14;;;;;;;3.80;3.50;;;12.40;73.10;;;;;;5076846;28;20044;-88
2022/04/20 11:19:49;;;;;;;4.63;4.15;;;13.20;72.60;;;;;;5094639;28;20105;-88
2022/04/20 11:22:18;;;;;;;4.18;3.50;;;13.40;72.80;;;;;;5093228;28;20031;-88
2022/04/20 11:24:48;;;;;;;5.32;4.25;;;13.70;71.00;;;;;;5076358;28;20115;-89
2022/04/20 11:27:14;;;;;;;7.35;5.85;;;13.70;65.90;;;;;;5094204;28;20568;-88
2022/04/20 11:29:43;;;;;;;4.82;4.00;;;13.70;63.70;;;;;;5092419;28;20056;-88
2022/04/20 11:32:10;;;;;;;5.10;4.18;;;13.60;63.90;;;;;;5076653;28;20025;-89
2022/04/20 11:34:39;;;;;;;4.80;4.30;;;13.60;64.80;;;;;;5094111;28;20386;-88
2022/04/20 11:37:09;;;;;;;5.20;4.60;;;13.50;63.90;;;;;;5092988;28;20024;-89
2022/04/20 11:39:36;;;;;;;;;;;13.40;63.50;;;;;;5077225;28;20028;-89
2022/04/20 11:42:07;;;;;;;6.10;4.75;;;13.30;62.90;;;;;;5076102;28;19915;-89
2022/04/20 11:44:41;;;;;;;6.70;4.50;;;13.30;64.00;;;;;;5092939;28;20021;-88
2022/04/20 11:47:09;;;;;;;6.15;4.55;;;13.20;64.20;;;;;;5076348;28;20028;-88
2022/04/20 11:49:41;;;;;;;8.05;4.28;;;13.20;64.20;;;;;;5095115;28;20380;-88
2022/04/20 11:52:14;;;;;;;5.10;4.40;;;13.30;63.40;;;;;;5097509;28;20364;-89
2022/04/20 11:54:47;;;;;;;7.75;4.78;;;13.10;63.50;;;;;;5096415;28;20477;-89
2022/04/20 11:57:15;;;;;;;7.95;4.93;;;12.90;64.20;;;;;;5096292;28;20031;-88
2022/04/20 11:59:48;;;;;;;6.15;4.55;;;12.60;65.50;;;;;;5079357;28;20032;-88
2022/04/20 12:02:16;;;;;;;9.55;5.72;;;12.50;66.20;;;;;;5096280;28;20056;-88
2022/04/20 12:04:43;;;;;;;7.55;5.30;;;12.50;66.60;;;;;;5096280;28;20027;-89
2022/04/20 12:07:10;;;;;;;5.05;4.13;;;12.50;66.20;;;;;;5095799;28;20115;-88
2022/04/20 12:09:39;;;;;;;4.22;3.65;;;12.30;65.50;;;;;;5095930;28;20047;-89
2022/04/20 12:12:10;;;;;;;6.18;4.40;;;12.30;65.70;;;;;;5096143;28;20038;-89
2022/04/20 12:14:37;;;;;;;5.80;3.97;;;12.20;64.60;;;;;;5095358;28;20462;-89
2022/04/20 12:17:20;;;;;;;5.30;4.13;;;12.10;65.00;;;;;;5096720;28;20463;-88
2022/04/20 12:19:46;;;;;;;4.65;4.10;;;12.00;65.80;;;;;;5096678;28;20032;-88
2022/04/20 12:22:18;;;;;;;5.28;3.85;;;12.00;65.80;;;;;;5096746;28;20031;-89
2022/04/20 12:24:45;;;;;;;4.68;4.18;;;11.90;65.10;;;;;;5095847;28;20024;-89
2022/04/20 12:27:53;;;;;;;6.20;4.07;;;11.90;65.50;;;;;;5095623;28;20111;-88
2022/04/20 12:30:37;;;;;;;8.02;4.10;;;11.90;66.00;;;;;;5095798;28;20043;-88
2022/04/20 12:33:04;;;;;;;4.72;3.67;;;11.90;66.70;;;;;;5095707;28;20024;-89
2022/04/20 12:35:33;;;;;;;5.88;3.97;;;12.00;66.80;;;;;;5095832;28;20378;-88
2022/04/20 12:37:59;;;;;;;4.15;3.72;;;12.10;65.80;;;;;;5078471;28;20024;-88
2022/04/20 12:40:25;;;;;;;4.47;4.07;;;12.20;64.80;;;;;;5078750;28;20497;-89
2022/04/20 12:43:07;;;;;;;7.18;4.18;;;12.20;64.70;;;;;;5095434;28;20028;-88
2022/04/20 12:45:33;;;;;;;6.78;4.47;;;12.30;64.70;;;;;;5095412;28;20021;-89
2022/04/20 12:48:10;;;;;;;4.88;4.10;;;12.40;64.20;;;;;;5096714;28;20474;-89
2022/04/20 12:50:43;;;;;;;5.32;4.40;;;12.40;63.30;;;;;;5095088;28;20050;-88
2022/04/20 12:53:10;;;;;;;5.47;4.32;;;12.50;64.10;;;;;;5095300;28;20028;-89
2022/04/20 12:55:42;;;;;;;5.47;3.33;;;12.60;64.70;;;;;;5096312;28;20374;-89
2022/04/20 13:03:44;;;;;;;4.35;3.50;;;13.20;65.10;;;;;;5096498;28;20035;-88
2022/04/20 13:06:14;;;;;;;4.15;3.35;;;13.40;65.00;;;;;;5095416;28;20032;-89
2022/04/20 13:08:41;;;;;;;5.93;4.28;;;13.50;64.50;;;;;;5095172;28;20032;-90
2022/04/20 13:11:11;;;;;;;4.60;4.00;;;13.50;60.30;;;;;;5094741;28;20027;-89
2022/04/20 13:13:37;;;;;;;4.50;3.53;;;13.30;60.40;;;;;;5095940;28;20481;-89
2022/04/20 13:16:08;;;;;;;3.53;3.22;;;13.00;62.00;;;;;;5061585;28;20028;-88
2022/04/20 13:18:36;;;;;;;4.10;3.67;;;12.80;62.30;;;;;;5095073;28;20020;-89
2022/04/20 13:21:03;;;;;;;3.78;3.38;;;12.60;61.80;;;;;;5095709;28;20142;-88
2022/04/20 13:23:29;;;;;;;6.25;3.60;;;12.50;63.10;;;;;;5094146;28;20039;-88
2022/04/20 13:28:41;;;;;;;4.75;3.60;;;12.60;63.40;;;;;;5095428;28;20051;-88
2022/04/20 13:31:06;;;;;;;3.97;3.50;;;12.60;64.50;;;;;;5094313;28;20145;-88
2022/04/20 13:33:32;;;;;;;5.50;3.92;;;12.70;64.90;;;;;;5095552;28;20103;-88
2022/04/20 13:36:00;;;;;;;6.70;4.32;;;12.80;63.90;;;;;;5094438;28;20020;-88